Home > Products > Valid Products > TAF

000
FTUS45 KGGW 281200 AAA
TAFOLF
TAF AMD
KOLF 281240Z 2813/0112 28007KT P6SM -SN OVC028
     FM281800 29010KT P6SM BKN040
     FM010000 28009KT P6SM SCT045
     FM010600 26008KT P6SM BKN030=



000
FTUS45 KGGW 281200 AAA
TAFOLF
TAF AMD
KOLF 281240Z 2813/0112 28007KT P6SM -SN OVC028
     FM281800 29010KT P6SM BKN040
     FM010000 28009KT P6SM SCT045
     FM010600 26008KT P6SM BKN030=



000
FTUS45 KGGW 281200 AAA
TAFOLF
TAF AMD
KOLF 281240Z 2813/0112 28007KT P6SM -SN OVC028
     FM281800 29010KT P6SM BKN040
     FM010000 28009KT P6SM SCT045
     FM010600 26008KT P6SM BKN030=



000
FTUS45 KGGW 281200 AAA
TAFGGW
TAF AMD
KGGW 281240Z 2813/0112 31006KT P6SM -SN OVC027
     FM281800 30009KT P6SM SCT040
     FM010000 28010KT P6SM BKN070=



000
FTUS45 KGGW 281200 AAA
TAFGGW
TAF AMD
KGGW 281240Z 2813/0112 31006KT P6SM -SN OVC027
     FM281800 30009KT P6SM SCT040
     FM010000 28010KT P6SM BKN070=



000
FTUS45 KGGW 281100
TAFSDY
TAF
KSDY 281129Z 2812/0112 30009KT P6SM BKN050
     FM010000 28010KT P6SM SCT035
     FM010600 27009KT P6SM BKN040
      AMD LTD TO CLD VIS AND WIND=



000
FTUS45 KGGW 281100
TAFGGW
TAF
KGGW 281129Z 2812/0112 31008KT P6SM -SN BKN035
     FM281800 30009KT P6SM SCT040
     FM010000 28010KT P6SM BKN070=



000
FTUS45 KGGW 281100
TAFGDV
TAF
KGDV 281129Z 2812/0112 32009KT P6SM BKN040
     FM010000 29010KT P6SM SCT040
     FM010600 26008KT P6SM BKN045
      AMD LTD TO CLD VIS AND WIND=



000
FTUS45 KGGW 281100
TAFOLF
TAF
KOLF 281129Z 2812/0112 28007KT P6SM -SN BKN040
     FM281800 29010KT P6SM BKN040
     FM010000 28009KT P6SM SCT045
     FM010600 26008KT P6SM BKN030=



000
FTUS45 KGGW 280500
TAFOLF
TAF
KOLF 280520Z 2806/0106 35011KT P6SM SCT050 BKN110
     FM281800 29009KT P6SM BKN040
     FM010000 28009KT P6SM SCT090=



000
FTUS45 KGGW 280500
TAFGDV
TAF
KGDV 280520Z 2806/0106 32008KT P6SM SCT040 BKN080
     FM281800 31011KT P6SM BKN028
     FM010000 29011KT P6SM SCT045
     FM010300 27007KT P6SM SCT045
      AMD LTD TO CLD VIS AND WIND=



000
FTUS45 KGGW 280500
TAFGGW
TAF
KGGW 280520Z 2806/0106 35012KT P6SM FEW030 BKN090
     FM281800 30010KT P6SM SCT040
     FM010300 VRB06KT P6SM SCT070=



000
FTUS45 KGGW 280500
TAFGDV
TAF
KGDV 280520Z 2806/0106 32008KT P6SM SCT040 BKN080
     FM281800 31011KT P6SM BKN028
     FM010000 29011KT P6SM SCT045
     FM010300 27007KT P6SM SCT045
      AMD LTD TO CLD VIS AND WIND=



000
FTUS45 KGGW 280500
TAFSDY
TAF
KSDY 280520Z 2806/0106 VRB06KT P6SM SCT025 OVC050
     FM281800 30010KT P6SM BKN030
     FM010000 28010KT P6SM SCT160
      AMD LTD TO CLD VIS AND WIND=



000
FTUS45 KGGW 280500
TAFOLF
TAF
KOLF 280520Z 2806/0106 35011KT P6SM SCT050 BKN110
     FM281800 29009KT P6SM BKN040
     FM010000 28009KT P6SM SCT090=



000
FTUS45 KGGW 280500
TAFGGW
TAF
KGGW 280520Z 2806/0106 35012KT P6SM FEW030 BKN090
     FM281800 30010KT P6SM SCT040
     FM010300 VRB06KT P6SM SCT070=



000
FTUS45 KGGW 280500
TAFSDY
TAF
KSDY 280520Z 2806/0106 VRB06KT P6SM SCT025 OVC050
     FM281800 30010KT P6SM BKN030
     FM010000 28010KT P6SM SCT160
      AMD LTD TO CLD VIS AND WIND=



000
FTUS45 KGGW 280500
TAFGDV
TAF
KGDV 280520Z 2806/0106 32008KT P6SM SCT040 BKN080
     FM281800 31011KT P6SM BKN028
     FM010000 29011KT P6SM SCT045
     FM010300 27007KT P6SM SCT045
      AMD LTD TO CLD VIS AND WIND=



000
FTUS45 KGGW 280500
TAFOLF
TAF
KOLF 280520Z 2806/0106 35011KT P6SM SCT050 BKN110
     FM281800 29009KT P6SM BKN040
     FM010000 28009KT P6SM SCT090=



000
FTUS45 KGGW 280500
TAFGDV
TAF
KGDV 280520Z 2806/0106 32008KT P6SM SCT040 BKN080
     FM281800 31011KT P6SM BKN028
     FM010000 29011KT P6SM SCT045
     FM010300 27007KT P6SM SCT045
      AMD LTD TO CLD VIS AND WIND=



000
FTUS45 KGGW 280500
TAFOLF
TAF
KOLF 280520Z 2806/0106 35011KT P6SM SCT050 BKN110
     FM281800 29009KT P6SM BKN040
     FM010000 28009KT P6SM SCT090=



000
FTUS45 KGGW 272300
TAFGDV
TAF
KGDV 272321Z 2800/2824 VRB06KT P6SM SCT250
     FM281200 30008KT P6SM SCT015 BKN070
     FM282000 29012KT P6SM FEW200
      AMD LTD TO CLD VIS AND WIND=



000
FTUS45 KGGW 272300
TAFGGW
TAF
KGGW 272321Z 2800/2824 VRB06KT P6SM SCT040 BKN250
     FM280500 33007KT P6SM SCT030 OVC070
     FM281500 30011KT P6SM SCT200=



000
FTUS45 KGGW 272300
TAFSDY
TAF
KSDY 272321Z 2800/2824 VRB04KT P6SM BKN200
     FM281300 31007KT P6SM SCT015 BKN070
     FM281800 29011KT P6SM SCT200
      AMD LTD TO CLD VIS AND WIND=



000
FTUS45 KGGW 272300
TAFOLF
TAF
KOLF 272321Z 2800/2824 VRB04KT P6SM FEW050 BKN250
     FM280800 VRB05KT P6SM SCT050 OVC080
     FM281700 29011KT P6SM FEW200=



000
FTUS45 KGGW 272300
TAFOLF
TAF
KOLF 272321Z 2800/2824 VRB04KT P6SM FEW050 BKN250
     FM280800 VRB05KT P6SM SCT050 OVC080
     FM281700 29011KT P6SM FEW200=



000
FTUS45 KGGW 272300
TAFGDV
TAF
KGDV 272321Z 2800/2824 VRB06KT P6SM SCT250
     FM281200 30008KT P6SM SCT015 BKN070
     FM282000 29012KT P6SM FEW200
      AMD LTD TO CLD VIS AND WIND=



000
FTUS45 KGGW 271700
TAFGDV
TAF
KGDV 271720Z 2718/2818 17011KT P6SM SCT250
     FM280200 VRB06KT P6SM SCT015 BKN050
     FM280900 31010KT P6SM SCT015 BKN050
      AMD LTD TO CLD VIS AND WIND=



000
FTUS45 KGGW 271700
TAFOLF
TAF
KOLF 271720Z 2718/2818 VRB06KT P6SM FEW250
     FM280000 31006KT P6SM SCT050 BKN250=



000
FTUS45 KGGW 271700
TAFGDV
TAF
KGDV 271720Z 2718/2818 17011KT P6SM SCT250
     FM280200 VRB06KT P6SM SCT015 BKN050
     FM280900 31010KT P6SM SCT015 BKN050
      AMD LTD TO CLD VIS AND WIND=



000
FTUS45 KGGW 271700
TAFOLF
TAF
KOLF 271720Z 2718/2818 VRB06KT P6SM FEW250
     FM280000 31006KT P6SM SCT050 BKN250=



000
FTUS45 KGGW 271700
TAFSDY
TAF
KSDY 271720Z 2718/2818 16008KT P6SM SKC
     FM280000 VRB04KT P6SM BKN200
     FM280300 32007KT P6SM SCT015 BKN050
      AMD LTD TO CLD VIS AND WIND=



000
FTUS45 KGGW 271700
TAFGGW
TAF
KGGW 271720Z 2718/2818 12009KT P6SM FEW250
     FM272000 VRB06KT P6SM SCT250
     FM280000 33007KT P6SM SCT050 BKN250=



000
FTUS45 KGGW 271100
TAFGGW
TAF
KGGW 271126Z 2712/2812 12009KT P6SM FEW250
     FM272100 VRB04KT P6SM SCT250
     FM280000 VRB05KT P6SM BKN250=



000
FTUS45 KGGW 271100
TAFGDV
TAF
KGDV 271126Z 2712/2812 16006KT P6SM FEW250
     FM271800 17011KT P6SM FEW250
     FM280000 VRB05KT P6SM SCT250
     FM280900 33010KT P6SM BKN150
      AMD LTD TO CLD VIS AND WIND=



000
FTUS45 KGGW 271100
TAFSDY
TAF
KSDY 271126Z 2712/2812 16008KT P6SM SKC
     FM280000 VRB04KT P6SM BKN250
     FM280900 34009KT P6SM BKN220
      AMD LTD TO CLD VIS AND WIND=



000
FTUS45 KGGW 271100
TAFOLF
TAF
KOLF 271126Z 2712/2812 VRB06KT P6SM FEW250
     FM280000 VRB05KT P6SM BKN250=



000
FTUS45 KGGW 271100
TAFOLF
TAF
KOLF 271126Z 2712/2812 VRB06KT P6SM FEW250
     FM280000 VRB05KT P6SM BKN250=



000
FTUS45 KGGW 271100
TAFGDV
TAF
KGDV 271126Z 2712/2812 16006KT P6SM FEW250
     FM271800 17011KT P6SM FEW250
     FM280000 VRB05KT P6SM SCT250
     FM280900 33010KT P6SM BKN150
      AMD LTD TO CLD VIS AND WIND=



000
FTUS45 KGGW 270500
TAFOLF
TAF
KOLF 270520Z 2706/2806 VRB04KT P6SM SKC
     FM280000 VRB05KT P6SM BKN250=



000
FTUS45 KGGW 270500
TAFGDV
TAF
KGDV 270520Z 2706/2806 VRB05KT P6SM SKC
     FM271800 17010KT P6SM FEW250
     FM280000 VRB04KT P6SM BKN250
      AMD LTD TO CLD VIS AND WIND=



000
FTUS45 KGGW 270500
TAFGGW
TAF
KGGW 270520Z 2706/2806 12009KT P6SM SKC
     FM280000 VRB05KT P6SM BKN250=



000
FTUS45 KGGW 270500
TAFSDY
TAF
KSDY 270520Z 2706/2806 VRB06KT P6SM SKC
     FM271800 17010KT P6SM SCT250
     FM280000 VRB03KT P6SM BKN250
      AMD LTD TO CLD VIS AND WIND=



000
FTUS45 KGGW 270500
TAFGDV
TAF
KGDV 270520Z 2706/2806 VRB05KT P6SM SKC
     FM271800 17010KT P6SM FEW250
     FM280000 VRB04KT P6SM BKN250
      AMD LTD TO CLD VIS AND WIND=



000
FTUS45 KGGW 270500
TAFOLF
TAF
KOLF 270520Z 2706/2806 VRB04KT P6SM SKC
     FM280000 VRB05KT P6SM BKN250=



000
FTUS45 KGGW 270500
TAFGDV
TAF
KGDV 270520Z 2706/2806 VRB05KT P6SM SKC
     FM271800 17010KT P6SM FEW250
     FM280000 VRB04KT P6SM BKN250
      AMD LTD TO CLD VIS AND WIND=



000
FTUS45 KGGW 270500
TAFGDV
TAF
KGDV 270520Z 2706/2806 VRB05KT P6SM SKC
     FM271800 17010KT P6SM FEW250
     FM280000 VRB04KT P6SM BKN250
      AMD LTD TO CLD VIS AND WIND=



000
FTUS45 KGGW 270500
TAFOLF
TAF
KOLF 270520Z 2706/2806 VRB04KT P6SM SKC
     FM280000 VRB05KT P6SM BKN250=



000
FTUS45 KGGW 270500
TAFSDY
TAF
KSDY 270520Z 2706/2806 VRB06KT P6SM SKC
     FM271800 17010KT P6SM SCT250
     FM280000 VRB03KT P6SM BKN250
      AMD LTD TO CLD VIS AND WIND=



000
FTUS45 KGGW 262300
TAFGDV
TAF
KGDV 262322Z 2700/2724 VRB06KT P6SM SKC
      AMD LTD TO CLD VIS AND WIND=



000
FTUS45 KGGW 262300
TAFOLF
TAF
KOLF 262322Z 2700/2724 VRB05KT P6SM SKC=



000
FTUS45 KGGW 262300
TAFGDV
TAF
KGDV 262322Z 2700/2724 VRB06KT P6SM SKC
      AMD LTD TO CLD VIS AND WIND=



000
FTUS45 KGGW 262300
TAFGDV
TAF
KGDV 262322Z 2700/2724 VRB06KT P6SM SKC
      AMD LTD TO CLD VIS AND WIND=



000
FTUS45 KGGW 262300
TAFOLF
TAF
KOLF 262322Z 2700/2724 VRB05KT P6SM SKC=



000
FTUS45 KGGW 262300
TAFOLF
TAF
KOLF 262322Z 2700/2724 VRB05KT P6SM SKC=



000
FTUS45 KGGW 262300
TAFSDY
TAF
KSDY 262322Z 2700/2724 VRB04KT P6SM SKC
     FM271800 17009KT P6SM SCT250
      AMD LTD TO CLD VIS AND WIND=



000
FTUS45 KGGW 262300
TAFGGW
TAF
KGGW 262322Z 2700/2724 16007KT P6SM SKC
     FM270200 11011KT P6SM SKC
     FM271800 VRB05KT P6SM SCT250=



000
FTUS45 KGGW 262300
TAFGDV
TAF
KGDV 262322Z 2700/2724 VRB06KT P6SM SKC
      AMD LTD TO CLD VIS AND WIND=



000
FTUS45 KGGW 261700
TAFOLF
TAF
KOLF 261720Z 2618/2718 VRB03KT P6SM SKC=



000
FTUS45 KGGW 261700
TAFGDV
TAF
KGDV 261720Z 2618/2718 VRB05KT P6SM SKC
      AMD LTD TO CLD VIS AND WIND=



000
FTUS45 KGGW 261700
TAFSDY
TAF
KSDY 261720Z 2618/2718 VRB04KT P6SM SKC
      AMD LTD TO CLD VIS AND WIND=



000
FTUS45 KGGW 261700
TAFGGW
TAF
KGGW 261720Z 2618/2718 VRB05KT P6SM SKC
     FM270300 12009KT P6SM SKC=



000
FTUS45 KGGW 261700
TAFSDY
TAF
KSDY 261720Z 2618/2718 VRB04KT P6SM SKC
      AMD LTD TO CLD VIS AND WIND=



000
FTUS45 KGGW 261700
TAFOLF
TAF
KOLF 261720Z 2618/2718 VRB03KT P6SM SKC=



000
FTUS45 KGGW 261700
TAFGDV
TAF
KGDV 261720Z 2618/2718 VRB05KT P6SM SKC
      AMD LTD TO CLD VIS AND WIND=



000
FTUS45 KGGW 261700
TAFGDV
TAF
KGDV 261720Z 2618/2718 VRB05KT P6SM SKC
      AMD LTD TO CLD VIS AND WIND=



000
FTUS45 KGGW 261700
TAFGGW
TAF
KGGW 261720Z 2618/2718 VRB05KT P6SM SKC
     FM270300 12009KT P6SM SKC=



000
FTUS45 KGGW 261700
TAFOLF
TAF
KOLF 261720Z 2618/2718 VRB03KT P6SM SKC=



000
FTUS45 KGGW 261100
TAFSDY
TAF
KSDY 261127Z 2612/2712 VRB06KT P6SM SKC
      AMD LTD TO CLD VIS AND WIND=



000
FTUS45 KGGW 261100
TAFGDV
TAF
KGDV 261127Z 2612/2712 VRB06KT P6SM SKC
      AMD LTD TO CLD VIS AND WIND=



000
FTUS45 KGGW 261100
TAFGGW
TAF
KGGW 261127Z 2612/2712 VRB06KT P6SM SKC
     FM270100 12009KT P6SM SKC=



000
FTUS45 KGGW 261100
TAFOLF
TAF
KOLF 261127Z 2612/2712 VRB05KT P6SM SKC=



000
FTUS45 KGGW 261100
TAFOLF
TAF
KOLF 261127Z 2612/2712 VRB05KT P6SM SKC=



000
FTUS45 KGGW 261100
TAFGDV
TAF
KGDV 261127Z 2612/2712 VRB06KT P6SM SKC
      AMD LTD TO CLD VIS AND WIND=



000
FTUS45 KGGW 260500
TAFGDV
TAF
KGDV 260520Z 2606/2706 VRB06KT P6SM SKC
      AMD LTD TO CLD VIS AND WIND=



000
FTUS45 KGGW 260500
TAFOLF
TAF
KOLF 260520Z 2606/2706 VRB06KT P6SM SKC=



000
FTUS45 KGGW 260500
TAFOLF
TAF
KOLF 260520Z 2606/2706 VRB06KT P6SM SKC=



000
FTUS45 KGGW 260500
TAFGDV
TAF
KGDV 260520Z 2606/2706 VRB06KT P6SM SKC
      AMD LTD TO CLD VIS AND WIND=



000
FTUS45 KGGW 260500
TAFSDY
TAF
KSDY 260520Z 2606/2706 VRB06KT P6SM FEW250
      AMD LTD TO CLD VIS AND WIND=



000
FTUS45 KGGW 260500
TAFOLF
TAF
KOLF 260520Z 2606/2706 VRB06KT P6SM SKC=



000
FTUS45 KGGW 260500
TAFGGW
TAF
KGGW 260520Z 2606/2706 02009KT P6SM SKC
     FM261500 VRB05KT P6SM SKC
     FM270300 12009KT P6SM SKC=



000
FTUS45 KGGW 260500
TAFOLF
TAF
KOLF 260520Z 2606/2706 VRB06KT P6SM SKC=



000
FTUS45 KGGW 260500
TAFGDV
TAF
KGDV 260520Z 2606/2706 VRB06KT P6SM SKC
      AMD LTD TO CLD VIS AND WIND=



000
FTUS45 KGGW 260500
TAFSDY
TAF
KSDY 260520Z 2606/2706 VRB06KT P6SM FEW250
      AMD LTD TO CLD VIS AND WIND=



000
FTUS45 KGGW 252300
TAFGDV
TAF
KGDV 252320Z 2600/2624 36015KT P6SM BKN035
     FM260600 36010KT P6SM FEW250
      AMD LTD TO CLD VIS AND WIND=



000
FTUS45 KGGW 252300
TAFOLF
TAF
KOLF 252320Z 2600/2624 34014KT P6SM FEW250
     FM260600 01008KT P6SM FEW250
     FM261800 VRB03KT P6SM SKC=



000
FTUS45 KGGW 252300
TAFSDY
TAF
KSDY 252320Z 2600/2624 34013KT P6SM FEW250
     FM260600 35009KT P6SM FEW250
     FM261800 VRB05KT P6SM FEW250
      AMD LTD TO CLD VIS AND WIND=



000
FTUS45 KGGW 252300
TAFGDV
TAF
KGDV 252320Z 2600/2624 36015KT P6SM BKN035
     FM260600 36010KT P6SM FEW250
      AMD LTD TO CLD VIS AND WIND=



000
FTUS45 KGGW 252300
TAFOLF
TAF
KOLF 252320Z 2600/2624 34014KT P6SM FEW250
     FM260600 01008KT P6SM FEW250
     FM261800 VRB03KT P6SM SKC=



000
FTUS45 KGGW 251700
TAFOLF
TAF
KOLF 251739Z 2518/2618 02014KT 2SM -SN BKN025 OVC035
     FM252000 02015KT 6SM -SHSN SCT022 BKN035
     FM260000 01012KT P6SM SCT190
     FM260600 02008KT P6SM FEW250=



000
FTUS45 KGGW 251700
TAFGDV
TAF
KGDV 251739Z 2518/2618 02013KT 5SM -SHSN SCT015 BKN030
     FM252200 36015KT 6SM -SHSN OVC025
     FM260000 36012KT P6SM BKN190
     FM260600 01009KT P6SM SCT190
      AMD LTD TO CLD VIS AND WIND=



000
FTUS45 KGGW 251700
TAFGDV
TAF
KGDV 251739Z 2518/2618 02013KT 5SM -SHSN SCT015 BKN030
     FM252200 36015KT 6SM -SHSN OVC025
     FM260000 36012KT P6SM BKN190
     FM260600 01009KT P6SM SCT190
      AMD LTD TO CLD VIS AND WIND=



000
FTUS45 KGGW 251700
TAFGGW
TAF
KGGW 251739Z 2518/2618 01015KT 6SM -SHSN SCT017 BKN035
     FM252200 36012KT P6SM SCT190
     FM260900 03007KT P6SM FEW250=



000
FTUS45 KGGW 251700
TAFGDV
TAF
KGDV 251739Z 2518/2618 02013KT 5SM -SHSN SCT015 BKN030
     FM252200 36015KT 6SM -SHSN OVC025
     FM260000 36012KT P6SM BKN190
     FM260600 01009KT P6SM SCT190
      AMD LTD TO CLD VIS AND WIND=



000
FTUS45 KGGW 251700
TAFOLF
TAF
KOLF 251739Z 2518/2618 02014KT 2SM -SN BKN025 OVC035
     FM252000 02015KT 6SM -SHSN SCT022 BKN035
     FM260000 01012KT P6SM SCT190
     FM260600 02008KT P6SM FEW250=



000
FTUS45 KGGW 251700
TAFGGW
TAF
KGGW 251739Z 2518/2618 01015KT 6SM -SHSN SCT017 BKN035
     FM252200 36012KT P6SM SCT190
     FM260900 03007KT P6SM FEW250=



000
FTUS45 KGGW 251700
TAFSDY
TAF
KSDY 251739Z 2518/2618 01013KT 4SM -SHSN SCT015 BKN035
     FM252100 36014KT P6SM BKN050
     FM260000 36011KT P6SM SCT150
     FM260900 36007KT P6SM FEW200
      AMD LTD TO CLD VIS AND WIND=



000
FTUS45 KGGW 251700
TAFSDY
TAF
KSDY 251739Z 2518/2618 01013KT 4SM -SHSN SCT015 BKN035
     FM252100 36014KT P6SM BKN050
     FM260000 36011KT P6SM SCT150
     FM260900 36007KT P6SM FEW200
      AMD LTD TO CLD VIS AND WIND=



000
FTUS45 KGGW 251700
TAFOLF
TAF
KOLF 251739Z 2518/2618 02014KT 2SM -SN BKN025 OVC035
     FM252000 02015KT 6SM -SHSN SCT022 BKN035
     FM260000 01012KT P6SM SCT190
     FM260600 02008KT P6SM FEW250=



000
FTUS45 KGGW 251700
TAFGDV
TAF
KGDV 251739Z 2518/2618 02013KT 5SM -SHSN SCT015 BKN030
     FM252200 36015KT 6SM -SHSN OVC025
     FM260000 36012KT P6SM BKN190
     FM260600 01009KT P6SM SCT190
      AMD LTD TO CLD VIS AND WIND=



000
FTUS45 KGGW 251700
TAFOLF
TAF
KOLF 251739Z 2518/2618 02014KT 2SM -SN BKN025 OVC035
     FM252000 02015KT 6SM -SHSN SCT022 BKN035
     FM260000 01012KT P6SM SCT190
     FM260600 02008KT P6SM FEW250=



    US Dept of Commerce
    National Oceanic and Atmospheric Administration
    National Weather Service
    1325 East West Highway
    Silver Spring, MD 20910
    Page Author: NWS Internet Services Team
Disclaimer
Information Quality
Credits
Glossary
Privacy Policy
Freedom of Information Act (FOIA)
About Us
Career Opportunities